sensor_id;sensor_type;location;lat;lon;timestamp;P1;durP1;ratioP1;P2;durP2;ratioP2
20095;SDS011;10207;50.942;6.900;2023-05-07T00:01:46;4.32;;;2.70;;
20095;SDS011;10207;50.942;6.900;2023-05-07T00:04:12;4.18;;;2.72;;
20095;SDS011;10207;50.942;6.900;2023-05-07T00:06:39;5.88;;;2.83;;
20095;SDS011;10207;50.942;6.900;2023-05-07T00:09:05;6.47;;;3.08;;
20095;SDS011;10207;50.942;6.900;2023-05-07T00:11:31;4.55;;;3.20;;
20095;SDS011;10207;50.942;6.900;2023-05-07T00:13:57;5.20;;;3.00;;
20095;SDS011;10207;50.942;6.900;2023-05-07T00:16:23;8.07;;;2.63;;
20095;SDS011;10207;50.942;6.900;2023-05-07T00:18:49;5.80;;;3.08;;
20095;SDS011;10207;50.942;6.900;2023-05-07T00:21:15;6.47;;;3.30;;
20095;SDS011;10207;50.942;6.900;2023-05-07T00:23:41;4.05;;;2.90;;
20095;SDS011;10207;50.942;6.900;2023-05-07T00:26:07;4.07;;;2.55;;
20095;SDS011;10207;50.942;6.900;2023-05-07T00:28:33;5.55;;;3.20;;
20095;SDS011;10207;50.942;6.900;2023-05-07T00:30:59;7.55;;;3.92;;
20095;SDS011;10207;50.942;6.900;2023-05-07T00:33:25;7.35;;;3.75;;
20095;SDS011;10207;50.942;6.900;2023-05-07T00:35:52;6.35;;;3.13;;
20095;SDS011;10207;50.942;6.900;2023-05-07T00:38:20;6.68;;;3.10;;
20095;SDS011;10207;50.942;6.900;2023-05-07T00:40:46;3.72;;;2.78;;
20095;SDS011;10207;50.942;6.900;2023-05-07T00:43:12;5.65;;;3.13;;
20095;SDS011;10207;50.942;6.900;2023-05-07T00:45:38;5.03;;;3.00;;
20095;SDS011;10207;50.942;6.900;2023-05-07T00:48:04;4.95;;;3.00;;
20095;SDS011;10207;50.942;6.900;2023-05-07T00:50:31;6.80;;;3.20;;
20095;SDS011;10207;50.942;6.900;2023-05-07T00:52:58;3.88;;;2.75;;
20095;SDS011;10207;50.942;6.900;2023-05-07T00:55:24;4.13;;;2.72;;
20095;SDS011;10207;50.942;6.900;2023-05-07T00:57:50;5.93;;;3.08;;
20095;SDS011;10207;50.942;6.900;2023-05-07T01:00:17;6.47;;;2.53;;
20095;SDS011;10207;50.942;6.900;2023-05-07T01:02:43;4.95;;;2.40;;
20095;SDS011;10207;50.942;6.900;2023-05-07T01:05:10;4.10;;;2.42;;
20095;SDS011;10207;50.942;6.900;2023-05-07T01:07:37;5.53;;;3.00;;
20095;SDS011;10207;50.942;6.900;2023-05-07T01:10:04;5.97;;;2.85;;
20095;SDS011;10207;50.942;6.900;2023-05-07T01:12:30;2.95;;;2.33;;
20095;SDS011;10207;50.942;6.900;2023-05-07T01:14:57;4.78;;;3.05;;
20095;SDS011;10207;50.942;6.900;2023-05-07T01:17:23;3.60;;;2.50;;
20095;SDS011;10207;50.942;6.900;2023-05-07T01:19:50;4.97;;;2.65;;
20095;SDS011;10207;50.942;6.900;2023-05-07T01:24:49;5.90;;;2.63;;
20095;SDS011;10207;50.942;6.900;2023-05-07T01:27:16;2.92;;;1.75;;
20095;SDS011;10207;50.942;6.900;2023-05-07T01:29:43;5.22;;;2.10;;
20095;SDS011;10207;50.942;6.900;2023-05-07T01:32:08;4.20;;;1.92;;
20095;SDS011;10207;50.942;6.900;2023-05-07T01:34:35;5.20;;;2.60;;
20095;SDS011;10207;50.942;6.900;2023-05-07T01:37:01;3.97;;;2.13;;
20095;SDS011;10207;50.942;6.900;2023-05-07T01:39:28;3.42;;;2.17;;
20095;SDS011;10207;50.942;6.900;2023-05-07T01:41:55;2.70;;;1.88;;
20095;SDS011;10207;50.942;6.900;2023-05-07T01:44:23;4.88;;;2.30;;
20095;SDS011;10207;50.942;6.900;2023-05-07T01:46:49;5.35;;;2.53;;
20095;SDS011;10207;50.942;6.900;2023-05-07T01:49:16;5.95;;;2.10;;
20095;SDS011;10207;50.942;6.900;2023-05-07T01:51:42;3.45;;;2.38;;
20095;SDS011;10207;50.942;6.900;2023-05-07T01:54:08;4.22;;;2.35;;
20095;SDS011;10207;50.942;6.900;2023-05-07T01:56:35;3.25;;;2.42;;
20095;SDS011;10207;50.942;6.900;2023-05-07T01:59:01;3.80;;;2.25;;
20095;SDS011;10207;50.942;6.900;2023-05-07T02:01:28;4.30;;;2.00;;
20095;SDS011;10207;50.942;6.900;2023-05-07T02:03:54;3.45;;;2.58;;
20095;SDS011;10207;50.942;6.900;2023-05-07T02:06:24;3.63;;;2.13;;
20095;SDS011;10207;50.942;6.900;2023-05-07T02:08:54;3.58;;;2.42;;
20095;SDS011;10207;50.942;6.900;2023-05-07T02:11:20;3.58;;;2.28;;
20095;SDS011;10207;50.942;6.900;2023-05-07T02:13:46;4.28;;;2.17;;
20095;SDS011;10207;50.942;6.900;2023-05-07T02:16:12;4.68;;;2.45;;
20095;SDS011;10207;50.942;6.900;2023-05-07T02:18:40;3.78;;;2.45;;
20095;SDS011;10207;50.942;6.900;2023-05-07T02:21:06;4.88;;;2.97;;
20095;SDS011;10207;50.942;6.900;2023-05-07T02:23:32;4.18;;;2.25;;
20095;SDS011;10207;50.942;6.900;2023-05-07T02:25:58;4.65;;;2.47;;
20095;SDS011;10207;50.942;6.900;2023-05-07T02:28:24;8.02;;;2.58;;
20095;SDS011;10207;50.942;6.900;2023-05-07T02:31:08;7.97;;;2.63;;
20095;SDS011;10207;50.942;6.900;2023-05-07T02:33:35;8.40;;;2.80;;
20095;SDS011;10207;50.942;6.900;2023-05-07T02:36:10;5.40;;;2.45;;
20095;SDS011;10207;50.942;6.900;2023-05-07T02:38:52;5.20;;;4.15;;
20095;SDS011;10207;50.942;6.900;2023-05-07T02:41:18;4.38;;;2.42;;
20095;SDS011;10207;50.942;6.900;2023-05-07T02:43:44;3.92;;;2.53;;
20095;SDS011;10207;50.942;6.900;2023-05-07T02:46:10;4.32;;;3.35;;
20095;SDS011;10207;50.942;6.900;2023-05-07T02:48:40;4.35;;;3.05;;
20095;SDS011;10207;50.942;6.900;2023-05-07T02:51:06;5.00;;;2.90;;
20095;SDS011;10207;50.942;6.900;2023-05-07T02:53:34;9.10;;;3.30;;
20095;SDS011;10207;50.942;6.900;2023-05-07T02:56:00;5.72;;;2.78;;
20095;SDS011;10207;50.942;6.900;2023-05-07T02:58:27;5.25;;;2.88;;
20095;SDS011;10207;50.942;6.900;2023-05-07T03:00:53;4.63;;;3.00;;
20095;SDS011;10207;50.942;6.900;2023-05-07T03:03:37;3.97;;;2.42;;
20095;SDS011;10207;50.942;6.900;2023-05-07T03:06:03;5.18;;;2.88;;
20095;SDS011;10207;50.942;6.900;2023-05-07T03:08:29;4.28;;;2.53;;
20095;SDS011;10207;50.942;6.900;2023-05-07T03:10:55;4.18;;;2.85;;
20095;SDS011;10207;50.942;6.900;2023-05-07T03:13:21;5.90;;;3.08;;
20095;SDS011;10207;50.942;6.900;2023-05-07T03:15:47;5.53;;;3.13;;
20095;SDS011;10207;50.942;6.900;2023-05-07T03:18:13;7.20;;;2.92;;
20095;SDS011;10207;50.942;6.900;2023-05-07T03:20:39;6.57;;;3.33;;
20095;SDS011;10207;50.942;6.900;2023-05-07T03:23:06;4.55;;;2.90;;
20095;SDS011;10207;50.942;6.900;2023-05-07T03:25:32;5.82;;;2.78;;
20095;SDS011;10207;50.942;6.900;2023-05-07T03:27:58;6.20;;;2.85;;
20095;SDS011;10207;50.942;6.900;2023-05-07T03:30:30;8.50;;;3.20;;
20095;SDS011;10207;50.942;6.900;2023-05-07T03:32:56;5.25;;;2.67;;
20095;SDS011;10207;50.942;6.900;2023-05-07T03:35:23;4.32;;;2.70;;
20095;SDS011;10207;50.942;6.900;2023-05-07T03:37:49;7.53;;;3.10;;
20095;SDS011;10207;50.942;6.900;2023-05-07T03:40:15;4.57;;;3.03;;
20095;SDS011;10207;50.942;6.900;2023-05-07T03:42:48;4.43;;;2.70;;
20095;SDS011;10207;50.942;6.900;2023-05-07T03:45:15;5.63;;;3.03;;
20095;SDS011;10207;50.942;6.900;2023-05-07T03:47:46;5.38;;;3.05;;
20095;SDS011;10207;50.942;6.900;2023-05-07T03:50:16;3.60;;;2.60;;
20095;SDS011;10207;50.942;6.900;2023-05-07T03:52:42;7.25;;;2.50;;
20095;SDS011;10207;50.942;6.900;2023-05-07T03:55:09;8.57;;;3.10;;
20095;SDS011;10207;50.942;6.900;2023-05-07T03:57:37;5.07;;;2.80;;
20095;SDS011;10207;50.942;6.900;2023-05-07T04:00:04;3.78;;;2.92;;
20095;SDS011;10207;50.942;6.900;2023-05-07T04:02:35;4.68;;;2.63;;
20095;SDS011;10207;50.942;6.900;2023-05-07T04:05:03;3.60;;;2.30;;
20095;SDS011;10207;50.942;6.900;2023-05-07T04:07:29;4.22;;;2.75;;
20095;SDS011;10207;50.942;6.900;2023-05-07T04:09:54;5.10;;;2.53;;
20095;SDS011;10207;50.942;6.900;2023-05-07T04:12:21;5.82;;;2.85;;
20095;SDS011;10207;50.942;6.900;2023-05-07T04:14:47;2.55;;;2.05;;
20095;SDS011;10207;50.942;6.900;2023-05-07T04:17:13;3.90;;;2.25;;
20095;SDS011;10207;50.942;6.900;2023-05-07T04:19:39;4.43;;;2.60;;
20095;SDS011;10207;50.942;6.900;2023-05-07T04:22:06;3.53;;;2.60;;
20095;SDS011;10207;50.942;6.900;2023-05-07T04:24:32;3.60;;;2.15;;
20095;SDS011;10207;50.942;6.900;2023-05-07T04:27:00;4.53;;;2.22;;
20095;SDS011;10207;50.942;6.900;2023-05-07T04:29:27;2.50;;;1.98;;
20095;SDS011;10207;50.942;6.900;2023-05-07T04:31:54;2.75;;;1.95;;
20095;SDS011;10207;50.942;6.900;2023-05-07T04:34:22;4.93;;;2.15;;
20095;SDS011;10207;50.942;6.900;2023-05-07T04:36:48;2.63;;;2.00;;
20095;SDS011;10207;50.942;6.900;2023-05-07T04:39:14;2.92;;;1.83;;
20095;SDS011;10207;50.942;6.900;2023-05-07T04:41:43;6.97;;;2.03;;
20095;SDS011;10207;50.942;6.900;2023-05-07T04:44:09;8.07;;;2.08;;
20095;SDS011;10207;50.942;6.900;2023-05-07T04:46:36;2.80;;;2.10;;
20095;SDS011;10207;50.942;6.900;2023-05-07T04:49:03;3.60;;;1.92;;
20095;SDS011;10207;50.942;6.900;2023-05-07T04:51:29;2.50;;;1.83;;
20095;SDS011;10207;50.942;6.900;2023-05-07T04:53:55;6.20;;;2.88;;
20095;SDS011;10207;50.942;6.900;2023-05-07T04:56:21;4.25;;;1.90;;
20095;SDS011;10207;50.942;6.900;2023-05-07T04:58:47;3.13;;;1.80;;
20095;SDS011;10207;50.942;6.900;2023-05-07T05:01:15;4.13;;;2.17;;
20095;SDS011;10207;50.942;6.900;2023-05-07T05:03:41;3.17;;;1.60;;
20095;SDS011;10207;50.942;6.900;2023-05-07T05:06:07;4.63;;;1.90;;
20095;SDS011;10207;50.942;6.900;2023-05-07T05:08:34;4.22;;;2.20;;
20095;SDS011;10207;50.942;6.900;2023-05-07T05:11:02;5.00;;;2.00;;
20095;SDS011;10207;50.942;6.900;2023-05-07T05:13:29;7.55;;;2.03;;
20095;SDS011;10207;50.942;6.900;2023-05-07T05:15:56;3.08;;;1.90;;
20095;SDS011;10207;50.942;6.900;2023-05-07T05:18:23;3.58;;;1.80;;
20095;SDS011;10207;50.942;6.900;2023-05-07T05:20:49;2.55;;;1.60;;
20095;SDS011;10207;50.942;6.900;2023-05-07T05:23:16;3.22;;;1.73;;
20095;SDS011;10207;50.942;6.900;2023-05-07T05:25:43;6.18;;;1.70;;
20095;SDS011;10207;50.942;6.900;2023-05-07T05:28:11;2.47;;;1.75;;
20095;SDS011;10207;50.942;6.900;2023-05-07T05:30:38;4.30;;;1.55;;
20095;SDS011;10207;50.942;6.900;2023-05-07T05:33:04;3.55;;;1.30;;
20095;SDS011;10207;50.942;6.900;2023-05-07T05:35:30;2.88;;;1.30;;
20095;SDS011;10207;50.942;6.900;2023-05-07T05:37:58;3.53;;;1.35;;
20095;SDS011;10207;50.942;6.900;2023-05-07T05:40:24;5.25;;;1.45;;
20095;SDS011;10207;50.942;6.900;2023-05-07T05:42:50;2.17;;;1.35;;
20095;SDS011;10207;50.942;6.900;2023-05-07T05:45:16;1.58;;;1.10;;
20095;SDS011;10207;50.942;6.900;2023-05-07T05:47:44;1.77;;;1.40;;
20095;SDS011;10207;50.942;6.900;2023-05-07T05:50:10;3.08;;;1.48;;
20095;SDS011;10207;50.942;6.900;2023-05-07T05:52:36;2.83;;;1.40;;
20095;SDS011;10207;50.942;6.900;2023-05-07T05:55:03;3.72;;;1.48;;
20095;SDS011;10207;50.942;6.900;2023-05-07T05:57:29;3.58;;;1.13;;
20095;SDS011;10207;50.942;6.900;2023-05-07T05:59:56;4.32;;;1.20;;
20095;SDS011;10207;50.942;6.900;2023-05-07T06:02:23;4.53;;;1.30;;
20095;SDS011;10207;50.942;6.900;2023-05-07T06:04:49;3.70;;;1.40;;
20095;SDS011;10207;50.942;6.900;2023-05-07T06:07:18;2.15;;;1.25;;
20095;SDS011;10207;50.942;6.900;2023-05-07T06:09:44;2.95;;;1.10;;
20095;SDS011;10207;50.942;6.900;2023-05-07T06:12:11;3.05;;;1.15;;
20095;SDS011;10207;50.942;6.900;2023-05-07T06:14:37;1.80;;;1.17;;
20095;SDS011;10207;50.942;6.900;2023-05-07T06:17:03;3.00;;;1.52;;
20095;SDS011;10207;50.942;6.900;2023-05-07T06:19:29;2.35;;;0.95;;
20095;SDS011;10207;50.942;6.900;2023-05-07T06:21:57;2.10;;;1.00;;
20095;SDS011;10207;50.942;6.900;2023-05-07T06:24:24;1.42;;;0.93;;
20095;SDS011;10207;50.942;6.900;2023-05-07T06:26:50;4.05;;;1.33;;
20095;SDS011;10207;50.942;6.900;2023-05-07T06:29:16;1.30;;;1.10;;
20095;SDS011;10207;50.942;6.900;2023-05-07T06:31:43;1.92;;;1.02;;
20095;SDS011;10207;50.942;6.900;2023-05-07T06:34:10;2.28;;;1.10;;
20095;SDS011;10207;50.942;6.900;2023-05-07T06:36:40;1.10;;;0.90;;
20095;SDS011;10207;50.942;6.900;2023-05-07T06:39:22;2.78;;;1.55;;
20095;SDS011;10207;50.942;6.900;2023-05-07T06:41:48;2.63;;;1.20;;
20095;SDS011;10207;50.942;6.900;2023-05-07T06:44:23;3.42;;;1.40;;
20095;SDS011;10207;50.942;6.900;2023-05-07T06:46:58;1.83;;;0.95;;
20095;SDS011;10207;50.942;6.900;2023-05-07T06:49:24;2.00;;;1.08;;
20095;SDS011;10207;50.942;6.900;2023-05-07T06:51:50;4.30;;;1.50;;
20095;SDS011;10207;50.942;6.900;2023-05-07T06:54:17;3.00;;;0.90;;
20095;SDS011;10207;50.942;6.900;2023-05-07T06:56:44;2.05;;;1.27;;
20095;SDS011;10207;50.942;6.900;2023-05-07T06:59:10;2.50;;;1.23;;
20095;SDS011;10207;50.942;6.900;2023-05-07T07:01:39;4.53;;;1.48;;
20095;SDS011;10207;50.942;6.900;2023-05-07T07:04:07;1.90;;;1.20;;
20095;SDS011;10207;50.942;6.900;2023-05-07T07:06:33;2.30;;;1.25;;
20095;SDS011;10207;50.942;6.900;2023-05-07T07:09:01;5.28;;;1.58;;
20095;SDS011;10207;50.942;6.900;2023-05-07T07:11:28;3.60;;;1.30;;
20095;SDS011;10207;50.942;6.900;2023-05-07T07:13:55;2.00;;;1.08;;
20095;SDS011;10207;50.942;6.900;2023-05-07T07:16:21;1.65;;;1.00;;
20095;SDS011;10207;50.942;6.900;2023-05-07T07:18:48;1.35;;;1.00;;
20095;SDS011;10207;50.942;6.900;2023-05-07T07:21:14;2.63;;;1.08;;
20095;SDS011;10207;50.942;6.900;2023-05-07T07:23:40;1.48;;;1.00;;
20095;SDS011;10207;50.942;6.900;2023-05-07T07:26:06;2.10;;;1.05;;
20095;SDS011;10207;50.942;6.900;2023-05-07T07:28:32;2.20;;;1.00;;
20095;SDS011;10207;50.942;6.900;2023-05-07T07:30:58;2.42;;;1.10;;
20095;SDS011;10207;50.942;6.900;2023-05-07T07:33:25;4.90;;;1.67;;
20095;SDS011;10207;50.942;6.900;2023-05-07T07:35:51;2.65;;;1.20;;
20095;SDS011;10207;50.942;6.900;2023-05-07T07:38:17;2.42;;;1.20;;
20095;SDS011;10207;50.942;6.900;2023-05-07T07:40:43;2.35;;;1.30;;
20095;SDS011;10207;50.942;6.900;2023-05-07T07:43:10;3.65;;;0.85;;
20095;SDS011;10207;50.942;6.900;2023-05-07T07:45:36;1.42;;;0.90;;
20095;SDS011;10207;50.942;6.900;2023-05-07T07:48:04;1.98;;;1.20;;
20095;SDS011;10207;50.942;6.900;2023-05-07T07:50:33;3.95;;;1.20;;
20095;SDS011;10207;50.942;6.900;2023-05-07T07:52:59;3.28;;;1.10;;
20095;SDS011;10207;50.942;6.900;2023-05-07T07:55:26;1.60;;;0.95;;
20095;SDS011;10207;50.942;6.900;2023-05-07T07:57:53;4.25;;;1.27;;
20095;SDS011;10207;50.942;6.900;2023-05-07T08:00:21;1.88;;;1.10;;
20095;SDS011;10207;50.942;6.900;2023-05-07T08:02:52;2.45;;;1.40;;
20095;SDS011;10207;50.942;6.900;2023-05-07T08:05:24;2.80;;;1.20;;
20095;SDS011;10207;50.942;6.900;2023-05-07T08:07:51;1.52;;;1.05;;
20095;SDS011;10207;50.942;6.900;2023-05-07T08:10:22;1.85;;;1.20;;
20095;SDS011;10207;50.942;6.900;2023-05-07T08:12:52;3.08;;;1.52;;
20095;SDS011;10207;50.942;6.900;2023-05-07T08:15:18;1.35;;;1.10;;
20095;SDS011;10207;50.942;6.900;2023-05-07T08:17:44;2.55;;;1.23;;
20095;SDS011;10207;50.942;6.900;2023-05-07T08:20:10;2.88;;;1.33;;
20095;SDS011;10207;50.942;6.900;2023-05-07T08:22:37;2.60;;;1.15;;
20095;SDS011;10207;50.942;6.900;2023-05-07T08:25:03;4.15;;;1.13;;
20095;SDS011;10207;50.942;6.900;2023-05-07T08:27:29;4.15;;;1.35;;
20095;SDS011;10207;50.942;6.900;2023-05-07T08:29:56;1.85;;;1.45;;
20095;SDS011;10207;50.942;6.900;2023-05-07T08:32:22;2.38;;;1.10;;
20095;SDS011;10207;50.942;6.900;2023-05-07T08:34:48;1.85;;;1.08;;
20095;SDS011;10207;50.942;6.900;2023-05-07T08:37:14;1.75;;;1.00;;
20095;SDS011;10207;50.942;6.900;2023-05-07T08:39:41;2.92;;;1.00;;
20095;SDS011;10207;50.942;6.900;2023-05-07T08:42:15;2.05;;;1.02;;
20095;SDS011;10207;50.942;6.900;2023-05-07T08:44:42;2.17;;;1.20;;
20095;SDS011;10207;50.942;6.900;2023-05-07T08:47:11;4.38;;;1.40;;
20095;SDS011;10207;50.942;6.900;2023-05-07T08:49:37;2.20;;;1.30;;
20095;SDS011;10207;50.942;6.900;2023-05-07T08:52:06;1.60;;;1.05;;
20095;SDS011;10207;50.942;6.900;2023-05-07T08:54:32;6.35;;;1.38;;
20095;SDS011;10207;50.942;6.900;2023-05-07T08:57:00;2.92;;;1.00;;
20095;SDS011;10207;50.942;6.900;2023-05-07T08:59:27;3.33;;;1.23;;
20095;SDS011;10207;50.942;6.900;2023-05-07T09:01:53;3.05;;;1.10;;
20095;SDS011;10207;50.942;6.900;2023-05-07T09:04:19;3.22;;;1.30;;
20095;SDS011;10207;50.942;6.900;2023-05-07T09:06:46;1.77;;;0.73;;
20095;SDS011;10207;50.942;6.900;2023-05-07T09:09:14;2.65;;;1.17;;
20095;SDS011;10207;50.942;6.900;2023-05-07T09:11:43;0.98;;;0.82;;
20095;SDS011;10207;50.942;6.900;2023-05-07T09:14:10;1.98;;;1.20;;
20095;SDS011;10207;50.942;6.900;2023-05-07T09:16:39;2.47;;;1.42;;
20095;SDS011;10207;50.942;6.900;2023-05-07T09:19:05;2.00;;;1.00;;
20095;SDS011;10207;50.942;6.900;2023-05-07T09:21:33;1.45;;;0.90;;
20095;SDS011;10207;50.942;6.900;2023-05-07T09:24:01;4.25;;;1.73;;
20095;SDS011;10207;50.942;6.900;2023-05-07T09:26:34;2.38;;;0.93;;
20095;SDS011;10207;50.942;6.900;2023-05-07T09:29:01;3.25;;;1.40;;
20095;SDS011;10207;50.942;6.900;2023-05-07T09:31:27;1.98;;;1.02;;
20095;SDS011;10207;50.942;6.900;2023-05-07T09:33:54;2.30;;;1.15;;
20095;SDS011;10207;50.942;6.900;2023-05-07T09:36:23;2.05;;;1.10;;
20095;SDS011;10207;50.942;6.900;2023-05-07T09:38:49;4.80;;;1.38;;
20095;SDS011;10207;50.942;6.900;2023-05-07T09:41:17;4.05;;;1.13;;
20095;SDS011;10207;50.942;6.900;2023-05-07T09:44:03;1.98;;;1.00;;
20095;SDS011;10207;50.942;6.900;2023-05-07T09:46:36;2.22;;;1.00;;
20095;SDS011;10207;50.942;6.900;2023-05-07T09:49:13;3.70;;;1.10;;
20095;SDS011;10207;50.942;6.900;2023-05-07T09:51:51;1.55;;;1.10;;
20095;SDS011;10207;50.942;6.900;2023-05-07T09:54:20;2.58;;;1.10;;
20095;SDS011;10207;50.942;6.900;2023-05-07T09:56:49;2.70;;;1.20;;
20095;SDS011;10207;50.942;6.900;2023-05-07T09:59:16;3.13;;;1.00;;
20095;SDS011;10207;50.942;6.900;2023-05-07T10:01:44;6.05;;;1.50;;
20095;SDS011;10207;50.942;6.900;2023-05-07T10:04:11;1.75;;;1.05;;
20095;SDS011;10207;50.942;6.900;2023-05-07T10:06:39;2.97;;;1.27;;
20095;SDS011;10207;50.942;6.900;2023-05-07T10:09:06;1.23;;;0.90;;
20095;SDS011;10207;50.942;6.900;2023-05-07T10:11:35;1.60;;;1.02;;
20095;SDS011;10207;50.942;6.900;2023-05-07T10:14:02;1.58;;;0.90;;
20095;SDS011;10207;50.942;6.900;2023-05-07T10:16:33;2.33;;;1.20;;
20095;SDS011;10207;50.942;6.900;2023-05-07T10:19:03;2.03;;;1.45;;
20095;SDS011;10207;50.942;6.900;2023-05-07T10:21:30;3.90;;;1.10;;
20095;SDS011;10207;50.942;6.900;2023-05-07T10:24:04;4.43;;;1.10;;
20095;SDS011;10207;50.942;6.900;2023-05-07T10:26:35;1.52;;;1.08;;
20095;SDS011;10207;50.942;6.900;2023-05-07T10:29:05;1.77;;;1.13;;
20095;SDS011;10207;50.942;6.900;2023-05-07T10:34:12;2.70;;;0.98;;
20095;SDS011;10207;50.942;6.900;2023-05-07T10:36:39;1.65;;;1.10;;
20095;SDS011;10207;50.942;6.900;2023-05-07T10:39:06;2.65;;;1.00;;
20095;SDS011;10207;50.942;6.900;2023-05-07T10:41:32;2.05;;;1.48;;
20095;SDS011;10207;50.942;6.900;2023-05-07T10:43:58;1.35;;;1.00;;
20095;SDS011;10207;50.942;6.900;2023-05-07T10:46:30;1.65;;;1.20;;
20095;SDS011;10207;50.942;6.900;2023-05-07T10:49:07;2.60;;;0.65;;
20095;SDS011;10207;50.942;6.900;2023-05-07T10:51:41;1.05;;;0.80;;
20095;SDS011;10207;50.942;6.900;2023-05-07T10:54:20;6.50;;;1.40;;
20095;SDS011;10207;50.942;6.900;2023-05-07T10:59:54;1.90;;;1.00;;
20095;SDS011;10207;50.942;6.900;2023-05-07T11:05:19;2.75;;;1.15;;
20095;SDS011;10207;50.942;6.900;2023-05-07T11:07:53;4.43;;;0.75;;
20095;SDS011;10207;50.942;6.900;2023-05-07T11:10:20;2.80;;;0.70;;
20095;SDS011;10207;50.942;6.900;2023-05-07T11:12:54;2.95;;;1.38;;
20095;SDS011;10207;50.942;6.900;2023-05-07T11:18:02;3.78;;;1.15;;
20095;SDS011;10207;50.942;6.900;2023-05-07T11:20:47;2.13;;;0.90;;
20095;SDS011;10207;50.942;6.900;2023-05-07T11:26:10;1.50;;;0.90;;
20095;SDS011;10207;50.942;6.900;2023-05-07T11:28:41;3.22;;;0.80;;
20095;SDS011;10207;50.942;6.900;2023-05-07T11:31:07;1.98;;;1.00;;
20095;SDS011;10207;50.942;6.900;2023-05-07T11:33:34;2.95;;;1.00;;
20095;SDS011;10207;50.942;6.900;2023-05-07T11:36:04;2.28;;;1.10;;
20095;SDS011;10207;50.942;6.900;2023-05-07T11:38:35;3.85;;;1.20;;
20095;SDS011;10207;50.942;6.900;2023-05-07T11:41:01;3.03;;;0.95;;
20095;SDS011;10207;50.942;6.900;2023-05-07T11:43:28;2.75;;;1.30;;
20095;SDS011;10207;50.942;6.900;2023-05-07T11:45:54;2.53;;;0.90;;
20095;SDS011;10207;50.942;6.900;2023-05-07T11:48:20;1.55;;;0.90;;
20095;SDS011;10207;50.942;6.900;2023-05-07T11:50:51;1.45;;;0.80;;
20095;SDS011;10207;50.942;6.900;2023-05-07T11:53:18;2.08;;;0.70;;
20095;SDS011;10207;50.942;6.900;2023-05-07T11:55:45;3.53;;;1.52;;
20095;SDS011;10207;50.942;6.900;2023-05-07T11:58:12;1.58;;;0.70;;
20095;SDS011;10207;50.942;6.900;2023-05-07T12:00:38;2.50;;;0.70;;
20095;SDS011;10207;50.942;6.900;2023-05-07T12:03:04;3.25;;;0.90;;
20095;SDS011;10207;50.942;6.900;2023-05-07T12:05:30;2.72;;;0.88;;
20095;SDS011;10207;50.942;6.900;2023-05-07T12:07:57;4.47;;;0.77;;
20095;SDS011;10207;50.942;6.900;2023-05-07T12:10:23;1.40;;;0.77;;
20095;SDS011;10207;50.942;6.900;2023-05-07T12:12:50;3.05;;;0.93;;
20095;SDS011;10207;50.942;6.900;2023-05-07T12:15:16;2.13;;;0.90;;
20095;SDS011;10207;50.942;6.900;2023-05-07T12:17:43;2.47;;;0.90;;
20095;SDS011;10207;50.942;6.900;2023-05-07T12:20:09;1.52;;;0.88;;
20095;SDS011;10207;50.942;6.900;2023-05-07T12:22:35;1.13;;;0.90;;
20095;SDS011;10207;50.942;6.900;2023-05-07T12:25:01;3.20;;;1.05;;
20095;SDS011;10207;50.942;6.900;2023-05-07T12:27:28;3.95;;;1.30;;
20095;SDS011;10207;50.942;6.900;2023-05-07T12:29:54;2.70;;;1.10;;
20095;SDS011;10207;50.942;6.900;2023-05-07T12:32:20;1.85;;;1.10;;
20095;SDS011;10207;50.942;6.900;2023-05-07T12:34:49;6.57;;;1.00;;
20095;SDS011;10207;50.942;6.900;2023-05-07T12:37:15;1.75;;;1.10;;
20095;SDS011;10207;50.942;6.900;2023-05-07T12:39:44;3.38;;;1.00;;
20095;SDS011;10207;50.942;6.900;2023-05-07T12:42:14;1.85;;;1.05;;
20095;SDS011;10207;50.942;6.900;2023-05-07T12:44:40;0.98;;;0.85;;
20095;SDS011;10207;50.942;6.900;2023-05-07T12:47:07;1.48;;;1.00;;
20095;SDS011;10207;50.942;6.900;2023-05-07T12:49:34;3.08;;;0.85;;
20095;SDS011;10207;50.942;6.900;2023-05-07T12:52:00;3.45;;;0.80;;
20095;SDS011;10207;50.942;6.900;2023-05-07T12:54:29;1.88;;;0.90;;
20095;SDS011;10207;50.942;6.900;2023-05-07T12:57:02;2.30;;;0.85;;
20095;SDS011;10207;50.942;6.900;2023-05-07T12:59:33;1.45;;;0.90;;
20095;SDS011;10207;50.942;6.900;2023-05-07T13:01:59;2.58;;;1.02;;
20095;SDS011;10207;50.942;6.900;2023-05-07T13:04:25;2.50;;;1.10;;
20095;SDS011;10207;50.942;6.900;2023-05-07T13:06:51;3.22;;;0.95;;
20095;SDS011;10207;50.942;6.900;2023-05-07T13:09:17;3.65;;;1.25;;
20095;SDS011;10207;50.942;6.900;2023-05-07T13:11:43;0.80;;;0.80;;
20095;SDS011;10207;50.942;6.900;2023-05-07T13:14:09;2.85;;;1.45;;
20095;SDS011;10207;50.942;6.900;2023-05-07T13:16:35;1.48;;;1.20;;
20095;SDS011;10207;50.942;6.900;2023-05-07T13:19:01;6.40;;;2.28;;
20095;SDS011;10207;50.942;6.900;2023-05-07T13:21:27;2.25;;;1.25;;
20095;SDS011;10207;50.942;6.900;2023-05-07T13:23:52;2.72;;;1.30;;
20095;SDS011;10207;50.942;6.900;2023-05-07T13:26:18;2.95;;;1.27;;
20095;SDS011;10207;50.942;6.900;2023-05-07T13:28:44;4.95;;;1.20;;
20095;SDS011;10207;50.942;6.900;2023-05-07T13:31:10;1.98;;;1.13;;
20095;SDS011;10207;50.942;6.900;2023-05-07T13:33:36;3.10;;;1.38;;
20095;SDS011;10207;50.942;6.900;2023-05-07T13:36:02;2.20;;;1.30;;
20095;SDS011;10207;50.942;6.900;2023-05-07T13:38:30;2.70;;;1.30;;
20095;SDS011;10207;50.942;6.900;2023-05-07T13:40:56;3.90;;;1.58;;
20095;SDS011;10207;50.942;6.900;2023-05-07T13:43:22;2.72;;;1.40;;
20095;SDS011;10207;50.942;6.900;2023-05-07T13:45:48;3.25;;;1.60;;
20095;SDS011;10207;50.942;6.900;2023-05-07T13:48:14;5.63;;;1.40;;
20095;SDS011;10207;50.942;6.900;2023-05-07T13:50:40;2.78;;;1.45;;
20095;SDS011;10207;50.942;6.900;2023-05-07T13:53:07;3.47;;;1.50;;
20095;SDS011;10207;50.942;6.900;2023-05-07T13:55:33;2.83;;;1.00;;
20095;SDS011;10207;50.942;6.900;2023-05-07T13:57:59;2.58;;;1.23;;
20095;SDS011;10207;50.942;6.900;2023-05-07T14:00:26;2.45;;;1.13;;
20095;SDS011;10207;50.942;6.900;2023-05-07T14:02:52;3.35;;;1.25;;
20095;SDS011;10207;50.942;6.900;2023-05-07T14:05:18;3.47;;;1.60;;
20095;SDS011;10207;50.942;6.900;2023-05-07T14:07:46;2.00;;;1.20;;
20095;SDS011;10207;50.942;6.900;2023-05-07T14:10:13;2.50;;;1.13;;
20095;SDS011;10207;50.942;6.900;2023-05-07T14:12:39;1.80;;;1.40;;
20095;SDS011;10207;50.942;6.900;2023-05-07T14:15:05;2.08;;;1.30;;
20095;SDS011;10207;50.942;6.900;2023-05-07T14:17:31;3.53;;;1.45;;
20095;SDS011;10207;50.942;6.900;2023-05-07T14:19:57;3.10;;;1.45;;
20095;SDS011;10207;50.942;6.900;2023-05-07T14:22:23;1.85;;;1.52;;
20095;SDS011;10207;50.942;6.900;2023-05-07T14:24:49;2.15;;;1.42;;
20095;SDS011;10207;50.942;6.900;2023-05-07T14:27:15;4.63;;;1.70;;
20095;SDS011;10207;50.942;6.900;2023-05-07T14:29:41;3.42;;;2.03;;
20095;SDS011;10207;50.942;6.900;2023-05-07T14:32:08;5.82;;;1.58;;
20095;SDS011;10207;50.942;6.900;2023-05-07T14:34:34;1.85;;;1.52;;
20095;SDS011;10207;50.942;6.900;2023-05-07T14:37:00;3.97;;;1.60;;
20095;SDS011;10207;50.942;6.900;2023-05-07T14:39:26;2.53;;;1.50;;
20095;SDS011;10207;50.942;6.900;2023-05-07T14:41:52;3.58;;;1.77;;
20095;SDS011;10207;50.942;6.900;2023-05-07T14:44:20;3.83;;;1.75;;
20095;SDS011;10207;50.942;6.900;2023-05-07T14:46:46;5.65;;;2.05;;
20095;SDS011;10207;50.942;6.900;2023-05-07T14:49:13;3.83;;;1.60;;
20095;SDS011;10207;50.942;6.900;2023-05-07T14:51:43;6.05;;;1.92;;
20095;SDS011;10207;50.942;6.900;2023-05-07T14:54:10;7.93;;;2.63;;
20095;SDS011;10207;50.942;6.900;2023-05-07T14:56:36;5.22;;;2.25;;
20095;SDS011;10207;50.942;6.900;2023-05-07T14:59:02;7.78;;;2.38;;
20095;SDS011;10207;50.942;6.900;2023-05-07T15:01:28;5.95;;;1.98;;
20095;SDS011;10207;50.942;6.900;2023-05-07T15:03:54;4.05;;;1.90;;
20095;SDS011;10207;50.942;6.900;2023-05-07T15:06:21;2.20;;;1.42;;